CPX772 Details

Departure: Tallinn Airport (EETN)
Arrival: Liège Airport (EBLG) at N/A
Route: TLL Q11 PIMEX P739 KOLJA M864 BUMIL OSB
Notes:


Current Weather Information
EETN 190650Z 19011KT 160V220 9000 OVC007 12/11 Q1006 BECMG 4000 RA BR OVC004
EBLG 190650Z 17010KT 150V210 9999 SCT017 BKN034 11/10 Q1004 TEMPO 4000 -RA BKN015